createdAt,value
2023-03-03T00:00:51.975Z,96828.34
2023-03-03T00:03:48.874Z,96832.41
2023-03-03T00:06:46.135Z,96830.13
2023-03-03T00:09:42.966Z,96837.72
2023-03-03T00:12:49.747Z,96842.53
2023-03-03T00:15:47.508Z,96846.75
2023-03-03T00:18:47.214Z,96841.03
2023-03-03T00:21:47.183Z,96833.94
2023-03-03T00:24:44.007Z,96837.50
2023-03-03T00:27:40.818Z,96841.28
2023-03-03T00:30:37.652Z,96833.50
2023-03-03T00:33:43.048Z,96831.19
2023-03-03T00:36:41.977Z,96831.22
2023-03-03T00:39:39.776Z,96837.63
2023-03-03T00:42:36.655Z,96841.69
2023-03-03T00:45:45.983Z,96836.00
2023-03-03T00:48:43.749Z,96830.66
2023-03-03T00:51:44.332Z,96827.13
2023-03-03T00:54:41.109Z,96826.69
2023-03-03T00:57:38.052Z,96818.97
2023-03-03T01:00:36.400Z,96820.25
2023-03-03T01:03:33.229Z,96826.41
2023-03-03T01:06:30.064Z,96817.94
2023-03-03T01:09:26.904Z,96817.03
2023-03-03T01:12:24.545Z,96811.97
2023-03-03T01:15:21.587Z,96808.59
2023-03-03T01:18:18.728Z,96811.81
2023-03-03T01:21:15.610Z,96801.34
2023-03-03T01:24:12.478Z,96799.97
2023-03-03T01:27:09.320Z,96805.38
2023-03-03T01:30:09.402Z,96805.53
2023-03-03T01:33:06.300Z,96797.75
2023-03-03T01:36:04.058Z,96802.97
2023-03-03T01:39:01.903Z,96795.72
2023-03-03T01:41:58.716Z,96804.16
2023-03-03T01:45:20.120Z,96802.09
2023-03-03T01:48:34.501Z,96791.56
2023-03-03T01:51:43.140Z,96798.00
2023-03-03T01:54:47.294Z,96796.19
2023-03-03T01:57:55.905Z,96797.16
2023-03-03T02:01:00.723Z,96801.88
2023-03-03T02:03:58.006Z,96810.00
2023-03-03T02:07:01.901Z,96802.09
2023-03-03T02:10:15.419Z,96802.13
2023-03-03T02:13:12.456Z,96798.38
2023-03-03T02:16:09.498Z,96800.16
2023-03-03T02:19:20.546Z,96787.09
2023-03-03T02:22:24.032Z,96797.75
2023-03-03T02:25:41.297Z,96798.91
2023-03-03T02:28:39.776Z,96794.94
2023-03-03T02:31:38.557Z,96804.00
2023-03-03T02:34:51.369Z,96798.84
2023-03-03T02:37:48.574Z,96791.19
2023-03-03T02:41:04.949Z,96784.03
2023-03-03T02:44:12.117Z,96794.28
2023-03-03T02:47:08.954Z,96787.91
2023-03-03T02:50:06.413Z,96791.91
2023-03-03T02:53:03.514Z,96796.13
2023-03-03T02:56:00.404Z,96805.88
2023-03-03T02:58:57.580Z,96812.97
2023-03-03T03:01:55.157Z,96812.06
2023-03-03T03:04:51.984Z,96801.41
2023-03-03T03:07:48.794Z,96790.97
2023-03-03T03:10:45.642Z,96796.03
2023-03-03T03:13:42.471Z,96785.03
2023-03-03T03:16:39.956Z,96789.94
2023-03-03T03:19:36.774Z,96812.75
2023-03-03T03:22:34.462Z,96809.53
2023-03-03T03:25:31.284Z,96807.38
2023-03-03T03:28:28.121Z,96812.75
2023-03-03T03:31:24.974Z,96818.03
2023-03-03T03:34:21.782Z,96817.13
2023-03-03T03:37:18.842Z,96814.72
2023-03-03T03:40:15.663Z,96811.50
2023-03-03T03:43:12.502Z,96812.88
2023-03-03T03:46:09.503Z,96819.28
2023-03-03T03:49:06.333Z,96803.25
2023-03-03T03:52:03.306Z,96815.50
2023-03-03T03:55:00.162Z,96812.19
2023-03-03T03:57:57.582Z,96812.97
2023-03-03T04:00:55.855Z,96811.13
2023-03-03T04:03:53.027Z,96806.56
2023-03-03T04:06:49.903Z,96811.63
2023-03-03T04:09:46.734Z,96805.34
2023-03-03T04:12:43.624Z,96812.66
2023-03-03T04:15:41.443Z,96813.00
2023-03-03T04:18:38.351Z,96814.94
2023-03-03T04:21:35.252Z,96820.31
2023-03-03T04:24:32.064Z,96822.03
2023-03-03T04:27:28.910Z,96814.63
2023-03-03T04:30:26.906Z,96815.06
2023-03-03T04:33:23.759Z,96800.28
2023-03-03T04:36:21.835Z,96808.63
2023-03-03T04:39:18.855Z,96803.84
2023-03-03T04:42:15.723Z,96797.31
2023-03-03T04:45:12.539Z,96795.25
2023-03-03T04:48:09.530Z,96803.06
2023-03-03T04:51:06.534Z,96807.50
2023-03-03T04:54:03.405Z,96812.78
2023-03-03T04:57:00.239Z,96806.94
2023-03-03T04:59:57.060Z,96808.19
2023-03-03T05:02:53.882Z,96803.16
2023-03-03T05:05:50.854Z,96810.59
2023-03-03T05:08:47.781Z,96810.03
2023-03-03T05:11:44.617Z,96818.59
2023-03-03T05:14:41.595Z,96817.69
2023-03-03T05:17:38.631Z,96816.56
2023-03-03T05:20:35.454Z,96808.56
2023-03-03T05:23:32.381Z,96810.38
2023-03-03T05:26:29.213Z,96807.41
2023-03-03T05:29:26.323Z,96814.38
2023-03-03T05:32:23.210Z,96829.38
2023-03-03T05:35:20.705Z,96826.63
2023-03-03T05:38:17.691Z,96816.56
2023-03-03T05:41:14.518Z,96832.78
2023-03-03T05:44:11.335Z,96840.13
2023-03-03T05:47:08.223Z,96833.50
2023-03-03T05:50:05.807Z,96838.44
2023-03-03T05:53:03.424Z,96843.56
2023-03-03T05:56:00.292Z,96850.44
2023-03-03T05:58:57.120Z,96842.50
2023-03-03T06:01:53.984Z,96838.88
2023-03-03T06:04:51.078Z,96849.16
2023-03-03T06:07:48.486Z,96844.84
2023-03-03T06:10:45.384Z,96855.72
2023-03-03T06:13:42.741Z,96858.56
2023-03-03T06:16:40.364Z,96862.34
2023-03-03T06:19:37.949Z,96851.34
2023-03-03T06:22:34.930Z,96863.94
2023-03-03T06:25:31.795Z,96882.38
2023-03-03T06:28:28.675Z,96900.72
2023-03-03T06:31:26.523Z,96900.94
2023-03-03T06:34:23.442Z,96900.47
2023-03-03T06:37:20.355Z,96906.88
2023-03-03T06:40:17.603Z,96897.03
2023-03-03T06:43:14.982Z,96894.97
2023-03-03T06:46:11.894Z,96898.41
2023-03-03T06:49:08.907Z,96891.88
2023-03-03T06:52:23.513Z,96885.22
2023-03-03T06:55:23.416Z,96893.03
2023-03-03T06:58:22.562Z,96890.03
2023-03-03T07:01:19.409Z,96904.59
2023-03-03T07:04:29.325Z,96903.69
2023-03-03T07:07:26.646Z,96916.63
2023-03-03T07:10:30.467Z,96923.28
2023-03-03T07:13:29.940Z,96925.34
2023-03-03T07:16:28.245Z,96933.91
2023-03-03T07:19:35.272Z,96933.34
2023-03-03T07:22:32.335Z,96917.31
2023-03-03T07:25:35.370Z,96921.22
2023-03-03T07:28:33.761Z,96920.84
2023-03-03T07:31:43.070Z,96934.16
2023-03-03T07:34:47.849Z,96940.34
2023-03-03T07:37:45.304Z,96945.03
2023-03-03T07:40:59.276Z,96949.50
2023-03-03T07:44:15.136Z,96933.75
2023-03-03T07:47:34.389Z,96929.16
2023-03-03T07:50:31.328Z,96932.50
2023-03-03T07:53:34.880Z,96933.00
2023-03-03T07:56:35.548Z,96926.75
2023-03-03T07:59:35.390Z,96933.75
2023-03-03T08:02:56.360Z,96935.44
2023-03-03T08:05:53.529Z,96934.50
2023-03-03T08:08:50.339Z,96939.06
2023-03-03T08:11:57.631Z,96930.16
2023-03-03T08:14:55.540Z,96939.53
2023-03-03T08:17:55.160Z,96938.31
2023-03-03T08:21:01.718Z,96929.84
2023-03-03T08:23:58.711Z,96943.38
2023-03-03T08:26:55.556Z,96937.22
2023-03-03T08:29:52.397Z,96935.31
2023-03-03T08:32:49.262Z,96949.81
2023-03-03T08:35:47.392Z,96962.41
2023-03-03T08:38:44.333Z,96972.22
2023-03-03T08:41:43.765Z,96971.44
2023-03-03T08:44:41.469Z,96970.56
2023-03-03T08:47:39.174Z,96977.84
2023-03-03T08:50:36.121Z,96986.06
2023-03-03T08:53:36.509Z,96990.41
2023-03-03T08:56:34.039Z,96998.00
2023-03-03T08:59:31.182Z,96990.75
2023-03-03T09:02:28.397Z,97006.03
2023-03-03T09:05:26.742Z,97001.31
2023-03-03T09:08:23.600Z,97010.31
2023-03-03T09:11:27.451Z,96993.13
2023-03-03T09:14:29.494Z,96991.34
2023-03-03T09:17:34.303Z,96981.75
2023-03-03T09:20:47.527Z,96998.97
2023-03-03T09:23:53.576Z,97013.31
2023-03-03T09:26:52.999Z,97013.09
2023-03-03T09:30:16.548Z,97003.56
2023-03-03T09:33:47.557Z,97013.69
2023-03-03T09:36:44.575Z,97002.66
2023-03-03T09:39:41.940Z,97005.09
2023-03-03T09:43:09.218Z,97010.28
2023-03-03T09:47:17.440Z,97006.25
2023-03-03T09:50:48.237Z,97006.31
2023-03-03T09:53:56.807Z,97008.00
2023-03-03T09:57:16.702Z,97008.25
2023-03-03T10:00:36.147Z,97020.19
2023-03-03T10:03:58.712Z,97019.81
2023-03-03T10:07:24.366Z,97014.47
2023-03-03T10:10:51.389Z,97009.72
2023-03-03T10:14:25.844Z,97007.03
2023-03-03T10:18:16.385Z,97008.91
2023-03-03T10:21:48.555Z,97027.44
2023-03-03T10:25:04.843Z,97025.94
2023-03-03T10:28:19.681Z,97023.94
2023-03-03T10:31:31.183Z,97023.25
2023-03-03T10:35:15.242Z,97029.16
2023-03-03T10:39:01.077Z,97037.84
2023-03-03T10:42:21.078Z,97032.59
2023-03-03T10:46:01.237Z,97037.66
2023-03-03T10:49:30.858Z,97037.00
2023-03-03T10:53:11.491Z,97044.66
2023-03-03T10:56:40.300Z,97041.59
2023-03-03T11:00:24.258Z,97026.28
2023-03-03T11:04:19.287Z,97029.88
2023-03-03T11:07:56.320Z,97027.09
2023-03-03T11:11:15.013Z,97014.31
2023-03-03T11:15:02.311Z,97021.00
2023-03-03T11:18:25.936Z,97003.81
2023-03-03T11:21:29.518Z,97000.78
2023-03-03T11:25:18.400Z,97000.69
2023-03-03T11:28:17.971Z,97003.34
2023-03-03T11:31:42.071Z,96987.78
2023-03-03T11:34:58.589Z,96983.91
2023-03-03T11:38:18.933Z,96970.63
2023-03-03T11:41:36.460Z,96975.78
2023-03-03T11:44:46.711Z,96967.25
2023-03-03T11:47:58.257Z,96967.66
2023-03-03T11:51:03.445Z,96959.72
2023-03-03T11:54:15.916Z,96965.94
2023-03-03T11:57:50.651Z,96959.09
2023-03-03T12:01:44.555Z,96944.63
2023-03-03T12:04:51.995Z,96954.50
2023-03-03T12:08:29.531Z,96947.34
2023-03-03T12:11:43.295Z,96936.75
2023-03-03T12:14:53.691Z,96943.16
2023-03-03T12:18:08.593Z,96933.88
2023-03-03T12:21:33.108Z,96943.47
2023-03-03T12:24:32.887Z,96938.91
2023-03-03T12:28:12.106Z,96938.91
2023-03-03T12:32:05.575Z,96938.94
2023-03-03T12:35:40.876Z,96945.47
2023-03-03T12:39:12.107Z,96949.09
2023-03-03T12:42:38.332Z,96946.19
2023-03-03T12:46:28.842Z,96951.69
2023-03-03T12:50:07.049Z,96931.75
2023-03-03T12:53:28.719Z,96936.09
2023-03-03T12:56:39.196Z,96935.66
2023-03-03T13:00:17.470Z,96934.00
2023-03-03T13:03:56.251Z,96937.97
2023-03-03T13:07:33.196Z,96934.09
2023-03-03T13:10:57.068Z,96945.53
2023-03-03T13:14:11.440Z,96950.09
2023-03-03T13:17:27.707Z,96939.72
2023-03-03T13:20:41.821Z,96941.31
2023-03-03T13:24:19.710Z,96940.66
2023-03-03T13:27:25.183Z,96936.72
2023-03-03T13:30:30.682Z,96944.13
2023-03-03T13:33:36.113Z,96940.91
2023-03-03T13:36:50.894Z,96946.66
2023-03-03T13:40:08.633Z,96941.81
2023-03-03T13:43:20.246Z,96937.44
2023-03-03T13:46:28.577Z,96947.94
2023-03-03T13:49:50.195Z,96943.84
2023-03-03T13:53:31.604Z,96934.63
2023-03-03T13:56:41.501Z,96934.59
2023-03-03T14:00:07.590Z,96930.13
2023-03-03T14:03:38.279Z,96929.03
2023-03-03T14:06:36.666Z,96932.31
2023-03-03T14:10:05.044Z,96917.63
2023-03-03T14:13:35.964Z,96932.69
2023-03-03T14:17:03.531Z,96917.91
2023-03-03T14:20:29.715Z,96916.22
2023-03-03T14:23:48.512Z,96914.53
2023-03-03T14:26:55.701Z,96914.59
2023-03-03T14:29:52.597Z,96921.31
2023-03-03T14:33:07.742Z,96918.03
2023-03-03T14:36:10.682Z,96912.31
2023-03-03T14:39:35.751Z,96917.00
2023-03-03T14:42:52.199Z,96909.56
2023-03-03T14:45:49.250Z,96912.47
2023-03-03T14:49:01.598Z,96904.38
2023-03-03T14:52:21.941Z,96909.50
2023-03-03T14:55:38.637Z,96900.59
2023-03-03T14:58:41.570Z,96897.16
2023-03-03T15:01:39.338Z,96906.34
2023-03-03T15:04:37.037Z,96902.06
2023-03-03T15:07:37.832Z,96895.09
2023-03-03T15:10:36.109Z,96889.31
2023-03-03T15:13:36.073Z,96895.94
2023-03-03T15:16:35.204Z,96898.25
2023-03-03T15:20:05.386Z,96891.63
2023-03-03T15:23:38.782Z,96893.22
2023-03-03T15:27:05.029Z,96888.72
2023-03-03T15:30:11.125Z,96890.50
2023-03-03T15:33:46.504Z,96889.72
2023-03-03T15:37:25.690Z,96894.34
2023-03-03T15:40:41.031Z,96890.22
2023-03-03T15:43:47.547Z,96893.69
2023-03-03T15:47:24.563Z,96889.28
2023-03-03T15:50:38.452Z,96891.19
2023-03-03T15:54:03.132Z,96892.97
2023-03-03T15:57:46.591Z,96896.09
2023-03-03T16:01:16.598Z,96890.13
2023-03-03T16:04:20.863Z,96890.41
2023-03-03T16:07:29.500Z,96886.50
2023-03-03T16:10:54.133Z,96891.97
2023-03-03T16:14:17.412Z,96891.59
2023-03-03T16:18:09.691Z,96896.22
2023-03-03T16:21:34.657Z,96898.00
2023-03-03T16:24:58.726Z,96893.44
2023-03-03T16:28:19.617Z,96901.28
2023-03-03T16:31:36.678Z,96903.00
2023-03-03T16:34:58.069Z,96905.19
2023-03-03T16:38:02.157Z,96915.63
2023-03-03T16:41:01.423Z,96921.06
2023-03-03T16:44:30.973Z,96924.13
2023-03-03T16:47:53.423Z,96933.44
2023-03-03T16:50:54.354Z,96940.47
2023-03-03T16:54:22.122Z,96944.91
2023-03-03T16:58:05.339Z,96957.22
2023-03-03T17:01:31.257Z,96956.56
2023-03-03T17:04:59.177Z,96965.75
2023-03-03T17:08:48.107Z,96972.41
2023-03-03T17:12:33.229Z,96976.88
2023-03-03T17:15:51.921Z,96982.72
2023-03-03T17:19:00.327Z,96968.28
2023-03-03T17:22:20.298Z,96968.06
2023-03-03T17:25:50.152Z,96980.31
2023-03-03T17:29:16.020Z,96980.09
2023-03-03T17:32:56.381Z,96980.31
2023-03-03T17:36:55.414Z,96987.66
2023-03-03T17:40:29.134Z,96987.53
2023-03-03T17:44:00.769Z,96988.31
2023-03-03T17:47:05.587Z,96988.09
2023-03-03T17:50:14.829Z,96986.59
2023-03-03T17:53:41.244Z,96986.00
2023-03-03T17:57:18.408Z,96991.75
2023-03-03T18:00:44.647Z,96984.75
2023-03-03T18:04:06.991Z,96990.00
2023-03-03T18:07:30.297Z,96981.06
2023-03-03T18:10:47.347Z,96986.97
2023-03-03T18:14:16.313Z,96996.47
2023-03-03T18:17:42.257Z,96997.97
2023-03-03T18:21:16.731Z,96999.34
2023-03-03T18:24:27.606Z,96984.88
2023-03-03T18:27:24.305Z,96996.13
2023-03-03T18:30:29.048Z,97001.31
2023-03-03T18:33:35.317Z,97003.56
2023-03-03T18:36:32.295Z,97004.91
2023-03-03T18:39:50.263Z,97011.38
2023-03-03T18:42:49.844Z,97005.91
2023-03-03T18:45:50.426Z,97016.97
2023-03-03T18:49:04.013Z,97016.75
2023-03-03T18:52:36.997Z,97019.13
2023-03-03T18:55:42.815Z,97025.69
2023-03-03T18:58:42.664Z,97035.19
2023-03-03T19:01:44.880Z,97038.69
2023-03-03T19:05:11.284Z,97032.94
2023-03-03T19:08:51.380Z,97040.31
2023-03-03T19:11:55.895Z,97029.88
2023-03-03T19:14:52.730Z,97027.91
2023-03-03T19:17:53.317Z,97032.22
2023-03-03T19:21:26.191Z,97026.16
2023-03-03T19:24:22.870Z,97028.25
2023-03-03T19:27:33.568Z,97027.78
2023-03-03T19:30:56.353Z,97040.22
2023-03-03T19:34:07.379Z,97035.16
2023-03-03T19:37:29.898Z,97029.91
2023-03-03T19:40:45.665Z,97034.22
2023-03-03T19:44:24.646Z,97035.50
2023-03-03T19:48:06.133Z,97028.03
2023-03-03T19:51:38.585Z,97033.41
2023-03-03T19:54:44.059Z,97038.03
2023-03-03T19:58:20.852Z,97042.66
2023-03-03T20:01:50.326Z,97034.06
2023-03-03T20:05:35.278Z,97038.28
2023-03-03T20:09:02.579Z,97033.72
2023-03-03T20:12:26.445Z,97029.72
2023-03-03T20:15:40.431Z,97027.97
2023-03-03T20:19:26.140Z,97022.75
2023-03-03T20:22:51.337Z,97030.38
2023-03-03T20:26:14.457Z,97029.25
2023-03-03T20:29:43.458Z,97040.94
2023-03-03T20:33:04.479Z,97034.03
2023-03-03T20:36:10.930Z,97035.81
2023-03-03T20:39:51.976Z,97028.03
2023-03-03T20:43:04.975Z,97035.47
2023-03-03T20:46:35.876Z,97035.38
2023-03-03T20:49:59.616Z,97035.78
2023-03-03T20:53:30.243Z,97031.94
2023-03-03T20:56:54.373Z,97033.69
2023-03-03T21:00:09.378Z,97037.56
2023-03-03T21:03:29.731Z,97039.66
2023-03-03T21:06:40.754Z,97043.88
2023-03-03T21:09:39.282Z,97038.03
2023-03-03T21:12:36.137Z,97040.97
2023-03-03T21:15:35.655Z,97039.50
2023-03-03T21:18:32.463Z,97043.66
2023-03-03T21:21:37.106Z,97040.63
2023-03-03T21:24:58.801Z,97041.91
2023-03-03T21:28:46.211Z,97035.03
2023-03-03T21:31:57.169Z,97039.06
2023-03-03T21:35:13.365Z,97039.41
2023-03-03T21:38:10.210Z,97042.59
2023-03-03T21:41:08.460Z,97035.91
2023-03-03T21:44:30.538Z,97035.50
2023-03-03T21:47:30.509Z,97037.00
2023-03-03T21:50:31.192Z,97028.16
2023-03-03T21:53:29.557Z,97029.31
2023-03-03T21:56:26.401Z,97032.19
2023-03-03T21:59:23.242Z,97023.13
2023-03-03T22:02:20.170Z,97032.25
2023-03-03T22:05:16.971Z,97023.56
2023-03-03T22:08:13.949Z,97018.41
2023-03-03T22:11:10.781Z,97023.91
2023-03-03T22:14:07.794Z,97021.69
2023-03-03T22:17:04.632Z,97025.03
2023-03-03T22:20:01.483Z,97034.69
2023-03-03T22:22:58.307Z,97030.72
2023-03-03T22:25:55.175Z,97028.03
2023-03-03T22:28:52.001Z,97038.56
2023-03-03T22:31:50.165Z,97048.75
2023-03-03T22:34:47.177Z,97044.84
2023-03-03T22:37:44.011Z,97052.28
2023-03-03T22:40:41.047Z,97037.78
2023-03-03T22:43:37.903Z,97036.88
2023-03-03T22:46:34.832Z,97037.38
2023-03-03T22:49:31.707Z,97045.66
2023-03-03T22:52:28.534Z,97043.50
2023-03-03T22:55:25.335Z,97043.69
2023-03-03T22:58:25.494Z,97032.22
2023-03-03T23:01:22.322Z,97028.38
2023-03-03T23:04:19.183Z,97023.81
2023-03-03T23:07:16.022Z,97029.81
2023-03-03T23:10:13.045Z,97024.56
2023-03-03T23:13:10.453Z,97020.88
2023-03-03T23:16:07.672Z,97022.00
2023-03-03T23:19:04.512Z,97022.56
2023-03-03T23:22:01.325Z,97028.75
2023-03-03T23:24:58.126Z,97019.69
2023-03-03T23:27:55.540Z,97013.19
2023-03-03T23:30:52.565Z,97023.19
2023-03-03T23:33:49.400Z,97014.41
2023-03-03T23:36:46.218Z,97013.81
2023-03-03T23:39:43.249Z,97014.69
2023-03-03T23:42:40.224Z,97015.03
2023-03-03T23:45:37.032Z,97006.56
2023-03-03T23:48:33.880Z,97007.66
2023-03-03T23:51:30.711Z,97004.16
2023-03-03T23:54:27.947Z,96996.38
2023-03-03T23:57:24.767Z,96999.66
